sensor_id;sensor_type;location;lat;lon;timestamp;pressure;altitude;pressure_sealevel;temperature;humidity
1207;BME280;593;53.184;8.216;2023-02-28T00:00:13;102767.28;;;6.68;89.67
1207;BME280;593;53.184;8.216;2023-02-28T00:02:40;102770.84;;;6.69;89.38
1207;BME280;593;53.184;8.216;2023-02-28T00:05:08;102761.88;;;6.68;89.87
1207;BME280;593;53.184;8.216;2023-02-28T00:07:34;102766.66;;;6.66;90.60
1207;BME280;593;53.184;8.216;2023-02-28T00:09:59;102759.97;;;6.62;90.11
1207;BME280;593;53.184;8.216;2023-02-28T00:12:25;102761.84;;;6.62;90.44
1207;BME280;593;53.184;8.216;2023-02-28T00:14:51;102752.50;;;6.64;90.60
1207;BME280;593;53.184;8.216;2023-02-28T00:17:16;102755.84;;;6.66;90.51
1207;BME280;593;53.184;8.216;2023-02-28T00:19:43;102757.09;;;6.64;90.93
1207;BME280;593;53.184;8.216;2023-02-28T00:22:09;102760.19;;;6.67;91.72
1207;BME280;593;53.184;8.216;2023-02-28T00:24:34;102751.47;;;6.65;90.91
1207;BME280;593;53.184;8.216;2023-02-28T00:26:59;102752.50;;;6.64;91.78
1207;BME280;593;53.184;8.216;2023-02-28T00:29:25;102748.09;;;6.57;91.48
1207;BME280;593;53.184;8.216;2023-02-28T00:31:50;102755.41;;;6.63;91.76
1207;BME280;593;53.184;8.216;2023-02-28T00:34:15;102764.38;;;6.63;91.56
1207;BME280;593;53.184;8.216;2023-02-28T00:36:43;102755.81;;;6.60;91.77
1207;BME280;593;53.184;8.216;2023-02-28T00:39:11;102761.44;;;6.65;91.10
1207;BME280;593;53.184;8.216;2023-02-28T00:41:37;102762.06;;;6.67;92.04
1207;BME280;593;53.184;8.216;2023-02-28T00:44:02;102760.81;;;6.63;91.69
1207;BME280;593;53.184;8.216;2023-02-28T00:46:27;102772.06;;;6.66;92.48
1207;BME280;593;53.184;8.216;2023-02-28T00:48:53;102764.78;;;6.60;91.97
1207;BME280;593;53.184;8.216;2023-02-28T00:51:18;102765.78;;;6.59;92.54
1207;BME280;593;53.184;8.216;2023-02-28T00:53:44;102768.31;;;6.61;92.70
1207;BME280;593;53.184;8.216;2023-02-28T00:56:10;102774.34;;;6.63;91.88
1207;BME280;593;53.184;8.216;2023-02-28T00:58:35;102770.63;;;6.64;93.22
1207;BME280;593;53.184;8.216;2023-02-28T01:01:01;102771.19;;;6.59;93.17
1207;BME280;593;53.184;8.216;2023-02-28T01:03:26;102770.16;;;6.54;92.78
1207;BME280;593;53.184;8.216;2023-02-28T01:05:52;102776.59;;;6.59;92.84
1207;BME280;593;53.184;8.216;2023-02-28T01:08:18;102779.53;;;6.58;93.68
1207;BME280;593;53.184;8.216;2023-02-28T01:10:43;102775.59;;;6.60;92.47
1207;BME280;593;53.184;8.216;2023-02-28T01:13:09;102771.84;;;6.61;93.07
1207;BME280;593;53.184;8.216;2023-02-28T01:15:35;102768.31;;;6.61;93.54
1207;BME280;593;53.184;8.216;2023-02-28T01:18:00;102781.63;;;6.62;92.94
1207;BME280;593;53.184;8.216;2023-02-28T01:20:25;102779.97;;;6.61;93.49
1207;BME280;593;53.184;8.216;2023-02-28T01:22:51;102769.34;;;6.60;93.16
1207;BME280;593;53.184;8.216;2023-02-28T01:25:16;102773.91;;;6.59;93.49
1207;BME280;593;53.184;8.216;2023-02-28T01:27:41;102777.03;;;6.56;93.07
1207;BME280;593;53.184;8.216;2023-02-28T01:30:08;102782.44;;;6.56;92.70
1207;BME280;593;53.184;8.216;2023-02-28T01:32:33;102777.84;;;6.50;93.36
1207;BME280;593;53.184;8.216;2023-02-28T01:34:59;102783.47;;;6.55;93.50
1207;BME280;593;53.184;8.216;2023-02-28T01:37:24;102775.97;;;6.51;92.60
1207;BME280;593;53.184;8.216;2023-02-28T01:39:49;102778.69;;;6.51;92.56
1207;BME280;593;53.184;8.216;2023-02-28T01:42:15;102769.94;;;6.49;92.86
1207;BME280;593;53.184;8.216;2023-02-28T01:47:22;102771.59;;;6.50;92.34
1207;BME280;593;53.184;8.216;2023-02-28T01:49:49;102764.53;;;6.49;93.24
1207;BME280;593;53.184;8.216;2023-02-28T01:52:16;102760.78;;;6.50;92.92
1207;BME280;593;53.184;8.216;2023-02-28T01:54:46;102755.59;;;6.48;92.52
1207;BME280;593;53.184;8.216;2023-02-28T01:57:16;102749.13;;;6.42;93.23
1207;BME280;593;53.184;8.216;2023-02-28T01:59:50;102758.28;;;6.48;92.33
1207;BME280;593;53.184;8.216;2023-02-28T02:02:19;102754.97;;;6.46;92.48
1207;BME280;593;53.184;8.216;2023-02-28T02:07:32;102758.69;;;6.45;92.72
1207;BME280;593;53.184;8.216;2023-02-28T02:10:05;102762.84;;;6.47;92.67
1207;BME280;593;53.184;8.216;2023-02-28T02:18:33;102752.84;;;6.41;93.46
1207;BME280;593;53.184;8.216;2023-02-28T02:29:41;102740.41;;;6.40;94.17
1207;BME280;593;53.184;8.216;2023-02-28T02:40:00;102739.31;;;6.35;94.90
1207;BME280;593;53.184;8.216;2023-02-28T02:42:42;102751.38;;;6.39;94.86
1207;BME280;593;53.184;8.216;2023-02-28T02:45:14;102749.31;;;6.34;94.83
1207;BME280;593;53.184;8.216;2023-02-28T02:47:42;102756.16;;;6.37;94.66
1207;BME280;593;53.184;8.216;2023-02-28T02:50:15;102744.09;;;6.33;94.78
1207;BME280;593;53.184;8.216;2023-02-28T02:52:48;102753.28;;;6.38;95.54
1207;BME280;593;53.184;8.216;2023-02-28T02:55:14;102748.69;;;6.39;95.01
1207;BME280;593;53.184;8.216;2023-02-28T02:57:53;102750.75;;;6.37;96.06
1207;BME280;593;53.184;8.216;2023-02-28T03:00:24;102748.50;;;6.40;95.74
1207;BME280;593;53.184;8.216;2023-02-28T03:02:52;102738.72;;;6.39;96.27
1207;BME280;593;53.184;8.216;2023-02-28T03:05:29;102744.34;;;6.38;96.28
1207;BME280;593;53.184;8.216;2023-02-28T03:07:56;102750.16;;;6.41;96.59
1207;BME280;593;53.184;8.216;2023-02-28T03:10:37;102738.50;;;6.34;96.63
1207;BME280;593;53.184;8.216;2023-02-28T03:21:26;102761.97;;;6.34;96.50
1207;BME280;593;53.184;8.216;2023-02-28T03:24:05;102759.47;;;6.32;96.79
1207;BME280;593;53.184;8.216;2023-02-28T03:26:39;102744.91;;;6.20;96.37
1207;BME280;593;53.184;8.216;2023-02-28T03:29:22;102748.69;;;6.32;96.49
1207;BME280;593;53.184;8.216;2023-02-28T03:31:58;102749.50;;;6.33;97.19
1207;BME280;593;53.184;8.216;2023-02-28T03:34:29;102752.63;;;6.30;97.16
1207;BME280;593;53.184;8.216;2023-02-28T03:36:58;102748.22;;;6.29;96.26
1207;BME280;593;53.184;8.216;2023-02-28T03:39:36;102737.41;;;6.22;96.84
1207;BME280;593;53.184;8.216;2023-02-28T03:42:13;102751.78;;;6.29;96.37
1207;BME280;593;53.184;8.216;2023-02-28T03:44:43;102765.50;;;6.28;97.38
1207;BME280;593;53.184;8.216;2023-02-28T03:47:13;102758.25;;;6.28;97.10
1207;BME280;593;53.184;8.216;2023-02-28T03:50:16;102745.97;;;6.26;96.79
1207;BME280;593;53.184;8.216;2023-02-28T03:52:43;102750.72;;;6.24;97.38
1207;BME280;593;53.184;8.216;2023-02-28T03:55:11;102756.53;;;6.21;97.44
1207;BME280;593;53.184;8.216;2023-02-28T04:00:25;102770.84;;;6.21;97.50
1207;BME280;593;53.184;8.216;2023-02-28T04:02:54;102760.88;;;6.15;97.47
1207;BME280;593;53.184;8.216;2023-02-28T04:05:20;102761.09;;;6.20;97.18
1207;BME280;593;53.184;8.216;2023-02-28T04:07:46;102767.97;;;6.23;96.89
1207;BME280;593;53.184;8.216;2023-02-28T04:10:12;102763.59;;;6.22;96.57
1207;BME280;593;53.184;8.216;2023-02-28T04:12:38;102761.72;;;6.22;97.48
1207;BME280;593;53.184;8.216;2023-02-28T04:15:04;102764.84;;;6.19;97.08
1207;BME280;593;53.184;8.216;2023-02-28T04:17:29;102771.91;;;6.20;97.63
1207;BME280;593;53.184;8.216;2023-02-28T04:19:54;102767.75;;;6.18;96.99
1207;BME280;593;53.184;8.216;2023-02-28T04:22:22;102764.00;;;6.19;96.31
1207;BME280;593;53.184;8.216;2023-02-28T04:24:51;102780.44;;;6.24;96.36
1207;BME280;593;53.184;8.216;2023-02-28T04:27:16;102770.22;;;6.19;95.88
1207;BME280;593;53.184;8.216;2023-02-28T04:29:41;102766.50;;;6.20;96.34
1207;BME280;593;53.184;8.216;2023-02-28T04:32:09;102772.53;;;6.22;96.90
1207;BME280;593;53.184;8.216;2023-02-28T04:34:35;102771.06;;;6.20;96.17
1207;BME280;593;53.184;8.216;2023-02-28T04:37:01;102768.59;;;6.18;96.42
1207;BME280;593;53.184;8.216;2023-02-28T04:39:28;102778.16;;;6.21;96.18
1207;BME280;593;53.184;8.216;2023-02-28T04:41:54;102771.47;;;6.17;96.44
1207;BME280;593;53.184;8.216;2023-02-28T04:44:20;102763.56;;;6.15;96.50
1207;BME280;593;53.184;8.216;2023-02-28T04:46:47;102766.50;;;6.20;96.81
1207;BME280;593;53.184;8.216;2023-02-28T04:49:13;102760.66;;;6.17;96.65
1207;BME280;593;53.184;8.216;2023-02-28T04:51:38;102771.28;;;6.18;96.85
1207;BME280;593;53.184;8.216;2023-02-28T04:54:04;102754.84;;;6.13;96.33
1207;BME280;593;53.184;8.216;2023-02-28T04:56:29;102773.16;;;6.18;97.11
1207;BME280;593;53.184;8.216;2023-02-28T04:58:55;102757.56;;;6.13;96.33
1207;BME280;593;53.184;8.216;2023-02-28T05:01:31;102767.75;;;6.18;96.59
1207;BME280;593;53.184;8.216;2023-02-28T05:03:59;102763.34;;;6.10;96.36
1207;BME280;593;53.184;8.216;2023-02-28T05:06:25;102769.16;;;6.14;96.91
1207;BME280;593;53.184;8.216;2023-02-28T05:08:51;102763.75;;;6.14;96.91
1207;BME280;593;53.184;8.216;2023-02-28T05:11:24;102772.91;;;6.13;96.84
1207;BME280;593;53.184;8.216;2023-02-28T05:13:50;102755.25;;;6.10;96.78
1207;BME280;593;53.184;8.216;2023-02-28T05:16:17;102764.81;;;6.13;96.79
1207;BME280;593;53.184;8.216;2023-02-28T05:18:43;102767.28;;;6.08;96.85
1207;BME280;593;53.184;8.216;2023-02-28T05:21:24;102771.25;;;6.12;95.94
1207;BME280;593;53.184;8.216;2023-02-28T05:23:50;102779.34;;;6.12;96.56
1207;BME280;593;53.184;8.216;2023-02-28T05:26:16;102770.81;;;6.08;96.33
1207;BME280;593;53.184;8.216;2023-02-28T05:28:41;102765.59;;;6.07;95.24
1207;BME280;593;53.184;8.216;2023-02-28T05:31:10;102770.63;;;6.10;96.16
1207;BME280;593;53.184;8.216;2023-02-28T05:33:35;102773.53;;;6.08;95.33
1207;BME280;593;53.184;8.216;2023-02-28T05:36:01;102778.09;;;6.08;95.29
1207;BME280;593;53.184;8.216;2023-02-28T05:38:26;102775.53;;;6.00;95.26
1207;BME280;593;53.184;8.216;2023-02-28T05:40:52;102769.97;;;6.01;95.95
1207;BME280;593;53.184;8.216;2023-02-28T05:43:18;102774.31;;;6.02;95.24
1207;BME280;593;53.184;8.216;2023-02-28T05:45:44;102790.53;;;6.02;94.69
1207;BME280;593;53.184;8.216;2023-02-28T05:48:09;102787.41;;;5.99;94.57
1207;BME280;593;53.184;8.216;2023-02-28T05:50:34;102780.53;;;5.96;95.15
1207;BME280;593;53.184;8.216;2023-02-28T05:53:00;102790.28;;;5.97;94.40
1207;BME280;593;53.184;8.216;2023-02-28T05:55:26;102776.13;;;5.89;94.59
1207;BME280;593;53.184;8.216;2023-02-28T05:57:51;102778.00;;;5.88;94.75
1207;BME280;593;53.184;8.216;2023-02-28T06:00:17;102791.09;;;5.91;94.64
1207;BME280;593;53.184;8.216;2023-02-28T06:02:43;102796.06;;;5.88;94.34
1207;BME280;593;53.184;8.216;2023-02-28T06:05:14;102798.28;;;5.84;93.64
1207;BME280;593;53.184;8.216;2023-02-28T06:07:40;102797.47;;;5.83;94.41
1207;BME280;593;53.184;8.216;2023-02-28T06:10:18;102799.50;;;5.81;93.84
1207;BME280;593;53.184;8.216;2023-02-28T06:12:55;102800.56;;;5.80;93.85
1207;BME280;593;53.184;8.216;2023-02-28T06:15:20;102790.97;;;5.78;93.18
1207;BME280;593;53.184;8.216;2023-02-28T06:17:46;102789.06;;;5.72;93.86
1207;BME280;593;53.184;8.216;2023-02-28T06:20:12;102795.75;;;5.76;93.29
1207;BME280;593;53.184;8.216;2023-02-28T06:22:59;102805.50;;;5.77;93.19
1207;BME280;593;53.184;8.216;2023-02-28T06:25:27;102803.59;;;5.71;93.09
1207;BME280;593;53.184;8.216;2023-02-28T06:28:07;102818.56;;;5.73;92.89
1207;BME280;593;53.184;8.216;2023-02-28T06:30:54;102822.69;;;5.69;92.64
1207;BME280;593;53.184;8.216;2023-02-28T06:33:26;102813.50;;;5.64;93.06
1207;BME280;593;53.184;8.216;2023-02-28T06:35:51;102815.56;;;5.62;93.07
1207;BME280;593;53.184;8.216;2023-02-28T06:38:17;102813.72;;;5.62;93.29
1207;BME280;593;53.184;8.216;2023-02-28T06:40:44;102818.28;;;5.62;93.80
1207;BME280;593;53.184;8.216;2023-02-28T06:43:09;102817.25;;;5.63;93.54
1207;BME280;593;53.184;8.216;2023-02-28T06:45:41;102818.28;;;5.62;94.18
1207;BME280;593;53.184;8.216;2023-02-28T06:48:06;102820.34;;;5.60;94.76
1207;BME280;593;53.184;8.216;2023-02-28T06:50:32;102819.25;;;5.54;94.27
1207;BME280;593;53.184;8.216;2023-02-28T06:52:58;102824.66;;;5.54;94.42
1207;BME280;593;53.184;8.216;2023-02-28T06:55:32;102823.81;;;5.54;93.93
1207;BME280;593;53.184;8.216;2023-02-28T06:57:58;102832.94;;;5.53;94.12
1207;BME280;593;53.184;8.216;2023-02-28T07:00:24;102828.41;;;5.53;94.86
1207;BME280;593;53.184;8.216;2023-02-28T07:02:56;102830.03;;;5.54;94.43
1207;BME280;593;53.184;8.216;2023-02-28T07:05:22;102846.47;;;5.59;94.52
1207;BME280;593;53.184;8.216;2023-02-28T07:08:03;102843.16;;;5.57;94.83
1207;BME280;593;53.184;8.216;2023-02-28T07:10:37;102836.06;;;5.56;94.41
1207;BME280;593;53.184;8.216;2023-02-28T07:13:17;102850.41;;;5.57;94.57
1207;BME280;593;53.184;8.216;2023-02-28T07:16:05;102849.56;;;5.56;94.48
1207;BME280;593;53.184;8.216;2023-02-28T07:18:31;102855.16;;;5.55;94.65
1207;BME280;593;53.184;8.216;2023-02-28T07:21:08;102844.13;;;5.50;94.53
1207;BME280;593;53.184;8.216;2023-02-28T07:23:42;102845.97;;;5.49;94.06
1207;BME280;593;53.184;8.216;2023-02-28T07:26:12;102863.06;;;5.56;94.23
1207;BME280;593;53.184;8.216;2023-02-28T07:28:45;102858.88;;;5.54;93.64
1207;BME280;593;53.184;8.216;2023-02-28T07:31:11;102860.78;;;5.53;93.21
1207;BME280;593;53.184;8.216;2023-02-28T07:33:57;102860.94;;;5.52;92.87
1207;BME280;593;53.184;8.216;2023-02-28T07:36:32;102869.06;;;5.52;91.83
1207;BME280;593;53.184;8.216;2023-02-28T07:39:04;102864.94;;;5.56;91.40
1207;BME280;593;53.184;8.216;2023-02-28T07:41:38;102858.50;;;5.57;91.73
1207;BME280;593;53.184;8.216;2023-02-28T07:44:21;102852.47;;;5.55;90.53
1207;BME280;593;53.184;8.216;2023-02-28T07:46:55;102861.28;;;5.63;90.54
1207;BME280;593;53.184;8.216;2023-02-28T07:49:46;102867.47;;;5.64;89.68
1207;BME280;593;53.184;8.216;2023-02-28T07:52:12;102851.88;;;5.59;89.60
1207;BME280;593;53.184;8.216;2023-02-28T07:54:37;102854.19;;;5.62;88.95
1207;BME280;593;53.184;8.216;2023-02-28T07:57:02;102860.31;;;5.71;87.92
1207;BME280;593;53.184;8.216;2023-02-28T07:59:28;102859.25;;;5.72;88.94
1207;BME280;593;53.184;8.216;2023-02-28T08:01:53;102857.63;;;5.77;88.51
1207;BME280;593;53.184;8.216;2023-02-28T08:04:19;102864.72;;;5.78;89.03
1207;BME280;593;53.184;8.216;2023-02-28T08:06:44;102861.59;;;5.81;88.63
1207;BME280;593;53.184;8.216;2023-02-28T08:09:27;102859.19;;;5.87;87.44
1207;BME280;593;53.184;8.216;2023-02-28T08:11:59;102862.53;;;5.89;85.41
1207;BME280;593;53.184;8.216;2023-02-28T08:14:25;102863.56;;;5.88;85.29
1207;BME280;593;53.184;8.216;2023-02-28T08:16:50;102856.69;;;5.85;85.85
1207;BME280;593;53.184;8.216;2023-02-28T08:19:16;102872.75;;;5.93;84.49
1207;BME280;593;53.184;8.216;2023-02-28T08:21:41;102863.16;;;5.91;83.95
1207;BME280;593;53.184;8.216;2023-02-28T08:24:23;102863.19;;;5.97;83.13
1207;BME280;593;53.184;8.216;2023-02-28T08:26:58;102865.28;;;5.95;82.62
1207;BME280;593;53.184;8.216;2023-02-28T08:29:23;102872.78;;;6.00;83.15
1207;BME280;593;53.184;8.216;2023-02-28T08:31:49;102876.09;;;6.02;82.19
1207;BME280;593;53.184;8.216;2023-02-28T08:34:26;102883.19;;;6.03;81.70
1207;BME280;593;53.184;8.216;2023-02-28T08:36:57;102875.94;;;6.03;80.73
1207;BME280;593;53.184;8.216;2023-02-28T08:39:42;102878.41;;;6.05;81.65
1207;BME280;593;53.184;8.216;2023-02-28T08:42:15;102868.44;;;5.99;81.57
1207;BME280;593;53.184;8.216;2023-02-28T08:44:40;102868.06;;;6.08;80.79
1207;BME280;593;53.184;8.216;2023-02-28T08:47:06;102866.78;;;6.04;80.86
1207;BME280;593;53.184;8.216;2023-02-28T08:49:32;102859.91;;;6.02;80.80
1207;BME280;593;53.184;8.216;2023-02-28T08:51:57;102868.25;;;6.07;80.70
1207;BME280;593;53.184;8.216;2023-02-28T08:54:34;102873.06;;;6.11;79.77
1207;BME280;593;53.184;8.216;2023-02-28T08:57:08;102868.06;;;6.08;81.01
1207;BME280;593;53.184;8.216;2023-02-28T08:59:33;102873.94;;;6.18;82.17
1207;BME280;593;53.184;8.216;2023-02-28T09:01:59;102882.47;;;6.22;80.93
1207;BME280;593;53.184;8.216;2023-02-28T09:04:38;102882.91;;;6.25;79.88
1207;BME280;593;53.184;8.216;2023-02-28T09:07:10;102879.38;;;6.25;78.87
1207;BME280;593;53.184;8.216;2023-02-28T09:09:53;102881.88;;;6.26;78.67
1207;BME280;593;53.184;8.216;2023-02-28T09:12:40;102883.16;;;6.30;77.24
1207;BME280;593;53.184;8.216;2023-02-28T09:15:12;102886.69;;;6.31;76.28
1207;BME280;593;53.184;8.216;2023-02-28T09:17:38;102875.44;;;6.27;75.97
1207;BME280;593;53.184;8.216;2023-02-28T09:20:15;102891.69;;;6.34;76.32
1207;BME280;593;53.184;8.216;2023-02-28T09:22:46;102885.03;;;6.36;74.85
1207;BME280;593;53.184;8.216;2023-02-28T09:25:11;102882.78;;;6.33;75.30
1207;BME280;593;53.184;8.216;2023-02-28T09:27:36;102879.63;;;6.36;74.15
1207;BME280;593;53.184;8.216;2023-02-28T09:30:10;102875.47;;;6.34;72.91
1207;BME280;593;53.184;8.216;2023-02-28T09:32:43;102890.69;;;6.41;71.79
1207;BME280;593;53.184;8.216;2023-02-28T09:35:19;102883.25;;;6.43;73.24
1207;BME280;593;53.184;8.216;2023-02-28T09:37:47;102883.63;;;6.40;74.19
1207;BME280;593;53.184;8.216;2023-02-28T09:40:14;102886.75;;;6.44;73.52
1207;BME280;593;53.184;8.216;2023-02-28T09:42:42;102879.09;;;6.47;73.01
1207;BME280;593;53.184;8.216;2023-02-28T09:45:40;102879.94;;;6.55;71.88
1207;BME280;593;53.184;8.216;2023-02-28T09:48:16;102879.75;;;6.56;71.40
1207;BME280;593;53.184;8.216;2023-02-28T09:50:48;102875.78;;;6.52;71.20
1207;BME280;593;53.184;8.216;2023-02-28T09:56:31;102894.31;;;6.62;70.31
1207;BME280;593;53.184;8.216;2023-02-28T09:59:30;102885.81;;;6.65;71.31
1207;BME280;593;53.184;8.216;2023-02-28T10:05:15;102881.88;;;6.67;68.63
1207;BME280;593;53.184;8.216;2023-02-28T10:10:44;102881.25;;;6.72;68.94
1207;BME280;593;53.184;8.216;2023-02-28T10:13:17;102890.44;;;6.77;68.81
1207;BME280;593;53.184;8.216;2023-02-28T10:15:47;102893.78;;;6.79;68.43
1207;BME280;593;53.184;8.216;2023-02-28T10:18:21;102887.94;;;6.76;68.17
1207;BME280;593;53.184;8.216;2023-02-28T10:20:48;102904.59;;;6.79;67.10
1207;BME280;593;53.184;8.216;2023-02-28T10:23:28;102890.88;;;6.81;65.68
1207;BME280;593;53.184;8.216;2023-02-28T10:25:59;102895.47;;;6.80;65.87
1207;BME280;593;53.184;8.216;2023-02-28T10:28:26;102883.97;;;6.72;66.59
1207;BME280;593;53.184;8.216;2023-02-28T10:30:54;102897.72;;;6.77;66.70
1207;BME280;593;53.184;8.216;2023-02-28T10:33:40;102890.88;;;6.81;66.61
1207;BME280;593;53.184;8.216;2023-02-28T10:36:08;102891.91;;;6.80;66.19
1207;BME280;593;53.184;8.216;2023-02-28T10:38:38;102897.13;;;6.81;66.88
1207;BME280;593;53.184;8.216;2023-02-28T10:43:30;102890.69;;;6.89;66.54
1207;BME280;593;53.184;8.216;2023-02-28T10:48:41;102886.56;;;6.93;64.93
1207;BME280;593;53.184;8.216;2023-02-28T10:51:11;102887.81;;;6.97;64.77
1207;BME280;593;53.184;8.216;2023-02-28T10:53:52;102891.34;;;6.97;63.91
1207;BME280;593;53.184;8.216;2023-02-28T10:56:22;102880.97;;;7.01;63.70
1207;BME280;593;53.184;8.216;2023-02-28T10:58:57;102891.16;;;7.05;65.04
1207;BME280;593;53.184;8.216;2023-02-28T11:01:41;102889.31;;;7.06;64.10
1207;BME280;593;53.184;8.216;2023-02-28T11:04:33;102883.91;;;7.06;62.01
1207;BME280;593;53.184;8.216;2023-02-28T11:07:19;102879.09;;;7.08;64.64
1207;BME280;593;53.184;8.216;2023-02-28T11:09:48;102882.44;;;7.10;64.69
1207;BME280;593;53.184;8.216;2023-02-28T11:12:37;102880.56;;;7.17;64.53
1207;BME280;593;53.184;8.216;2023-02-28T11:15:17;102884.53;;;7.15;63.45
1207;BME280;593;53.184;8.216;2023-02-28T11:17:43;102890.38;;;7.18;61.26
1207;BME280;593;53.184;8.216;2023-02-28T11:20:19;102890.16;;;7.20;60.42
1207;BME280;593;53.184;8.216;2023-02-28T11:22:47;102882.44;;;7.17;59.34
1207;BME280;593;53.184;8.216;2023-02-28T11:25:33;102874.31;;;7.17;58.88
1207;BME280;593;53.184;8.216;2023-02-28T11:28:01;102879.13;;;7.21;57.59
1207;BME280;593;53.184;8.216;2023-02-28T11:30:39;102897.88;;;7.29;57.43
1207;BME280;593;53.184;8.216;2023-02-28T11:33:28;102889.53;;;7.24;56.14
1207;BME280;593;53.184;8.216;2023-02-28T11:35:58;102874.75;;;7.14;57.24
1207;BME280;593;53.184;8.216;2023-02-28T11:38:26;102884.97;;;7.25;56.95
1207;BME280;593;53.184;8.216;2023-02-28T11:41:05;102879.53;;;7.25;56.57
1207;BME280;593;53.184;8.216;2023-02-28T11:46:24;102884.34;;;7.29;57.99
1207;BME280;593;53.184;8.216;2023-02-28T11:54:52;102879.13;;;7.34;55.40
1207;BME280;593;53.184;8.216;2023-02-28T11:57:33;102876.03;;;7.37;55.41
1207;BME280;593;53.184;8.216;2023-02-28T12:00:26;102871.44;;;7.31;54.94
1207;BME280;593;53.184;8.216;2023-02-28T12:05:41;102865.38;;;7.29;53.31
1207;BME280;593;53.184;8.216;2023-02-28T12:11:23;102846.66;;;7.34;52.71
1207;BME280;593;53.184;8.216;2023-02-28T12:19:37;102833.34;;;7.39;57.04
1207;BME280;593;53.184;8.216;2023-02-28T12:27:45;102825.22;;;7.39;56.51
1207;BME280;593;53.184;8.216;2023-02-28T12:30:24;102815.25;;;7.46;55.59
1207;BME280;593;53.184;8.216;2023-02-28T12:32:58;102818.13;;;7.32;54.11
1207;BME280;593;53.184;8.216;2023-02-28T12:35:32;102804.59;;;7.25;54.77
1207;BME280;593;53.184;8.216;2023-02-28T12:43:30;102798.97;;;7.59;56.79
1207;BME280;593;53.184;8.216;2023-02-28T12:46:02;102799.81;;;7.60;56.44
1207;BME280;593;53.184;8.216;2023-02-28T12:51:01;102781.66;;;7.67;56.52
1207;BME280;593;53.184;8.216;2023-02-28T12:54:10;102791.63;;;7.80;57.02
1207;BME280;593;53.184;8.216;2023-02-28T12:56:33;102783.72;;;7.85;58.67
1207;BME280;593;53.184;8.216;2023-02-28T12:59:05;102788.06;;;7.92;56.97
1207;BME280;593;53.184;8.216;2023-02-28T13:01:45;102780.75;;;7.99;57.02
1207;BME280;593;53.184;8.216;2023-02-28T13:04:46;102780.31;;;8.09;57.25
1207;BME280;593;53.184;8.216;2023-02-28T13:07:40;102783.00;;;8.15;53.50
1207;BME280;593;53.184;8.216;2023-02-28T13:10:12;102763.63;;;8.12;52.83
1207;BME280;593;53.184;8.216;2023-02-28T13:12:48;102764.03;;;8.15;51.95
1207;BME280;593;53.184;8.216;2023-02-28T13:15:25;102779.88;;;8.18;51.56
1207;BME280;593;53.184;8.216;2023-02-28T13:17:56;102775.28;;;8.12;50.72
1207;BME280;593;53.184;8.216;2023-02-28T13:20:34;102776.94;;;8.20;49.92
1207;BME280;593;53.184;8.216;2023-02-28T13:23:00;102761.53;;;8.14;50.32
1207;BME280;593;53.184;8.216;2023-02-28T13:28:11;102767.34;;;8.30;50.65
1207;BME280;593;53.184;8.216;2023-02-28T13:31:05;102744.66;;;8.12;51.48
1207;BME280;593;53.184;8.216;2023-02-28T13:44:18;102758.78;;;8.33;50.71
1207;BME280;593;53.184;8.216;2023-02-28T13:49:26;102756.63;;;8.42;50.12
1207;BME280;593;53.184;8.216;2023-02-28T13:54:53;102768.22;;;8.62;50.25
1207;BME280;593;53.184;8.216;2023-02-28T14:03:22;102761.34;;;8.60;53.81
1207;BME280;593;53.184;8.216;2023-02-28T14:08:58;102761.03;;;8.74;52.38
1207;BME280;593;53.184;8.216;2023-02-28T14:11:36;102750.06;;;8.63;51.58
1207;BME280;593;53.184;8.216;2023-02-28T14:14:03;102753.59;;;8.63;49.25
1207;BME280;593;53.184;8.216;2023-02-28T14:21:38;102742.75;;;8.63;49.11
1207;BME280;593;53.184;8.216;2023-02-28T14:27:03;102748.84;;;8.52;48.54
1207;BME280;593;53.184;8.216;2023-02-28T14:37:41;102743.38;;;8.65;51.72
1207;BME280;593;53.184;8.216;2023-02-28T14:40:22;102741.25;;;8.67;53.98
1207;BME280;593;53.184;8.216;2023-02-28T14:42:58;102752.63;;;8.82;52.67
1207;BME280;593;53.184;8.216;2023-02-28T14:45:28;102749.09;;;8.82;53.66
1207;BME280;593;53.184;8.216;2023-02-28T14:47:56;102751.44;;;8.78;52.29
1207;BME280;593;53.184;8.216;2023-02-28T14:50:27;102760.16;;;8.80;51.35
1207;BME280;593;53.184;8.216;2023-02-28T14:52:54;102757.50;;;8.74;50.84
1207;BME280;593;53.184;8.216;2023-02-28T14:55:25;102763.31;;;8.77;53.42
1207;BME280;593;53.184;8.216;2023-02-28T14:57:54;102762.94;;;8.74;50.75
1207;BME280;593;53.184;8.216;2023-02-28T15:00:28;102762.09;;;8.73;50.92
1207;BME280;593;53.184;8.216;2023-02-28T15:02:56;102763.00;;;8.61;49.54
1207;BME280;593;53.184;8.216;2023-02-28T15:05:34;102759.28;;;8.55;50.81
1207;BME280;593;53.184;8.216;2023-02-28T15:08:09;102762.28;;;8.41;49.77
1207;BME280;593;53.184;8.216;2023-02-28T15:10:35;102772.72;;;8.44;50.61
1207;BME280;593;53.184;8.216;2023-02-28T15:13:05;102768.91;;;8.51;53.01
1207;BME280;593;53.184;8.216;2023-02-28T15:15:44;102777.22;;;8.56;51.26
1207;BME280;593;53.184;8.216;2023-02-28T15:18:23;102768.66;;;8.59;52.62
1207;BME280;593;53.184;8.216;2023-02-28T15:20:51;102753.00;;;8.61;51.87
1207;BME280;593;53.184;8.216;2023-02-28T15:23:17;102759.50;;;8.54;50.39
1207;BME280;593;53.184;8.216;2023-02-28T15:25:44;102756.00;;;8.47;49.78
1207;BME280;593;53.184;8.216;2023-02-28T15:28:16;102765.41;;;8.44;50.46
1207;BME280;593;53.184;8.216;2023-02-28T15:33:28;102761.69;;;8.38;51.04
1207;BME280;593;53.184;8.216;2023-02-28T15:36:05;102751.22;;;8.42;53.09
1207;BME280;593;53.184;8.216;2023-02-28T15:38:35;102753.69;;;8.50;54.56
1207;BME280;593;53.184;8.216;2023-02-28T15:41:00;102754.47;;;8.57;55.33
1207;BME280;593;53.184;8.216;2023-02-28T15:43:26;102750.91;;;8.63;54.21
1207;BME280;593;53.184;8.216;2023-02-28T15:46:09;102745.47;;;8.63;54.59
1207;BME280;593;53.184;8.216;2023-02-28T15:48:53;102739.81;;;8.65;53.54
1207;BME280;593;53.184;8.216;2023-02-28T15:51:27;102757.53;;;8.67;55.05
1207;BME280;593;53.184;8.216;2023-02-28T15:53:56;102750.00;;;8.69;54.95
1207;BME280;593;53.184;8.216;2023-02-28T15:56:32;102745.84;;;8.67;55.19
1207;BME280;593;53.184;8.216;2023-02-28T15:59:01;102755.41;;;8.76;55.56
1207;BME280;593;53.184;8.216;2023-02-28T16:01:29;102753.97;;;8.73;54.93
1207;BME280;593;53.184;8.216;2023-02-28T16:03:59;102751.84;;;8.75;52.52
1207;BME280;593;53.184;8.216;2023-02-28T16:09:02;102751.84;;;8.75;54.50